Data for 12/10/2012

Time Sea-Level Adjusted Pressure Absolute Pressure Temperature Relative Humidity Dew Point   
(mb) (inHg) (mb) (inHg) (C) (F) (%) (C) (F)
00:05 1017 30.03 846 24.98 -6.7 19.9 57 -13.8 7.2
00:10 1017 30.03 846 24.98 -6.6 20.1 63 -12.5 9.5
00:15 1017 30.03 846 24.98 -6.6 20.1 63 -12.6 9.4
00:20 1017 30.03 846 24.98 -6.6 20.2 63 -12.4 9.7
00:25 1017 30.03 846 24.98 -6.5 20.4 65 -12.1 10.2
00:30 1017 30.03 846 24.98 -6.3 20.6 54 -14.3 6.3
00:35 1017 30.03 846 24.98 -6.1 21.1 62 -12.3 9.9
00:40 1017 30.03 846 24.98 -6.1 20.9 63 -12.1 10.3
00:45 1017 30.03 846 24.98 -6.2 20.8 59 -12.9 8.8
00:50 1017 30.03 846 24.98 -6 21.2 55 -13.6 7.5
00:55 1017 30.03 846 24.98 -5.9 21.3 58 -12.9 8.8
01:00 1017 30.03 846 24.98 -5.9 21.3 58 -13 8.7
01:05 1017 30.03 846 24.98 -5.9 21.4 63 -11.8 10.7
01:10 1017 30.03 846 24.98 -5.9 21.3 69 -10.7 12.7
01:15 1017 30.03 846 24.98 -5.9 21.3 71 -10.3 13.5
01:20 1016 30 846 24.98 -6 21.2 75 -9.7 14.5
01:25 1016 30 845 24.95 -6.2 20.8 77 -9.7 14.5
01:30 1016 30 845 24.95 -6.7 20 79 -9.7 14.6
01:35 1016 30 845 24.95 -6.9 19.6 78 -10.1 13.8
01:40 1016 30 845 24.95 -6.9 19.5 79 -10 13.9
01:45 1016 30 845 24.95 -6.9 19.5 79 -10 13.9
01:50 1016 30 845 24.95 -6.9 19.5 79 -10 14
01:55 1016 30 845 24.95 -6.9 19.6 79 -9.9 14.1
02:00 1016 30 845 24.95 -6.8 19.7 80 -9.7 14.5
02:05 1016 30 845 24.95 -6.7 19.9 80 -9.6 14.8
02:10 1016 30 845 24.95 -6.7 19.9 81 -9.4 15
02:15 1016 30 845 24.95 -6.8 19.7 81 -9.6 14.8
02:20 1016 30 845 24.95 -6.8 19.8 82 -9.4 15.1
02:25 1016 30 845 24.95 -6.7 20 82 -9.3 15.3
02:30 1016 30 845 24.95 -6.7 20 82 -9.2 15.4
02:35 1016 30 845 24.95 -6.7 20 83 -9.2 15.5
02:40 1016 30 845 24.95 -6.7 20 83 -9.1 15.5
02:45 1016 30 845 24.95 -6.6 20.1 83 -9.1 15.7
02:50 1016 30 845 24.95 -6.5 20.4 82 -9.1 15.6
02:55 1016 30 845 24.95 -6.4 20.5 82 -9 15.8
03:00 1016 30 845 24.95 -6.4 20.5 82 -9.1 15.7
03:05 1016 30 845 24.95 -6.4 20.5 81 -9.2 15.5
03:10 1016 30 845 24.95 -6.2 20.8 80 -9.1 15.6
03:15 1016 30 845 24.95 -6 21.2 79 -9 15.8
03:20 1016 30 845 24.95 -6 21.2 80 -8.9 16
03:25 1016 30 845 24.95 -6 21.2 80 -8.9 15.9
03:30 1016 30 845 24.95 -6 21.3 79 -9 15.9
03:35 1016 30 845 24.95 -5.9 21.3 79 -9 15.7
03:40 1016 30 845 24.95 -5.9 21.4 78 -9.2 15.5
03:45 1015 29.97 845 24.95 -5.6 22 76 -9.1 15.6
03:50 1015 29.97 845 24.95 -5.5 22.1 77 -8.9 16.1
03:55 1016 30 845 24.95 -5.7 21.8 78 -8.9 16
04:00 1016 30 845 24.95 -5.7 21.8 76 -9.3 15.3
04:05 1015 29.97 845 24.95 -5.5 22 77 -8.9 16
04:10 1015 29.97 845 24.95 -5.7 21.8 78 -9 15.9
04:15 1015 29.97 844 24.92 -5.6 21.9 77 -9 15.8
04:20 1015 29.97 844 24.92 -5.6 22 76 -9.1 15.7
04:25 1015 29.97 844 24.92 -5.4 22.2 77 -8.8 16.1
04:30 1015 29.97 844 24.92 -5.3 22.5 78 -8.6 16.6
04:35 1015 29.97 844 24.92 -4.9 23.2 74 -8.8 16.1
04:40 1015 29.97 844 24.92 -5.1 22.8 76 -8.7 16.4
04:45 1015 29.97 844 24.92 -4.9 23.2 72 -9.2 15.4
04:50 1015 29.97 844 24.92 -4.6 23.7 74 -8.5 16.7
04:55 1015 29.97 844 24.92 -4.6 23.7 72 -8.9 15.9
05:00 1015 29.97 844 24.92 -4.5 23.9 71 -9 15.9
05:05 1015 29.97 844 24.92 -4.5 24 69 -9.3 15.3
05:10 1015 29.97 844 24.92 -4.3 24.3 69 -9.2 15.4
05:15 1015 29.97 844 24.92 -4.2 24.4 67 -9.4 15
05:20 1015 29.97 844 24.92 -4.1 24.6 68 -9.2 15.4
05:25 1015 29.97 844 24.92 -4.3 24.2 71 -8.9 16
05:30 1015 29.97 844 24.92 -4.5 23.8 72 -8.8 16.2
05:35 1015 29.97 844 24.92 -4.5 23.9 73 -8.6 16.5
05:40 1014 29.94 844 24.92 -4.4 24 73 -8.5 16.6
05:45 1014 29.94 844 24.92 -4.6 23.7 74 -8.6 16.5
05:50 1015 29.97 844 24.92 -4.9 23.2 74 -8.8 16.2
05:55 1014 29.94 844 24.92 -4.4 24.1 68 -9.3 15.2
06:00 1014 29.94 844 24.92 -3.8 25.2 68 -8.8 16.2
06:05 1014 29.94 844 24.92 -4.2 24.4 71 -8.8 16.1
06:10 1014 29.94 844 24.92 -4.5 24 71 -8.9 16
06:15 1014 29.94 844 24.92 -4.5 23.8 72 -8.8 16.2
06:20 1014 29.94 844 24.92 -4.4 24 71 -9 15.8
06:25 1015 29.97 844 24.92 -4 24.8 69 -8.9 16
06:30 1015 29.97 844 24.92 -4.1 24.6 72 -8.5 16.8
06:35 1014 29.94 844 24.92 -4.4 24 73 -8.6 16.5
06:40 1014 29.94 844 24.92 -4.4 24.1 73 -8.6 16.6
06:45 1014 29.94 844 24.92 -4.1 24.6 72 -8.5 16.7
06:50 1014 29.94 844 24.92 -4.2 24.5 72 -8.4 16.8
06:55 1014 29.94 843 24.89 -4.3 24.2 73 -8.5 16.7
07:00 1014 29.94 843 24.89 -4.3 24.2 73 -8.5 16.7
07:05 1014 29.94 843 24.89 -4.3 24.3 74 -8.3 17
07:10 1014 29.94 843 24.89 -4.4 24.1 75 -8.1 17.5
07:15 1014 29.94 843 24.89 -4.4 24.1 75 -8.1 17.4
07:20 1014 29.94 843 24.89 -4.3 24.2 76 -8 17.6
07:25 1014 29.94 843 24.89 -4.3 24.3 76 -7.9 17.8
07:30 1014 29.94 843 24.89 -4.3 24.3 77 -7.7 18.2
07:35 1014 29.94 843 24.89 -4.3 24.2 78 -7.6 18.3
07:40 1014 29.94 843 24.89 -4.5 24 80 -7.4 18.7
07:45 1014 29.94 843 24.89 -4.5 23.8 81 -7.3 18.9
07:50 1014 29.94 843 24.89 -4.6 23.7 82 -7.2 19.1
07:55 1014 29.94 843 24.89 -4.6 23.8 83 -7 19.4
08:00 1014 29.94 843 24.89 -4.5 23.9 83 -7 19.5
08:05 1014 29.94 843 24.89 -4.5 23.9 83 -6.9 19.5
08:10 1014 29.94 843 24.89 -4.6 23.7 83 -7.1 19.3
08:15 1014 29.94 843 24.89 -4.7 23.6 83 -7.2 19.1
08:20 1014 29.94 843 24.89 -4.8 23.4 83 -7.2 19
08:25 1014 29.94 843 24.89 -4.8 23.3 83 -7.3 18.9
08:30 1014 29.94 843 24.89 -4.8 23.3 83 -7.2 19
08:35 1014 29.94 843 24.89 -4.8 23.3 83 -7.3 18.9
08:40 1014 29.94 843 24.89 -4.8 23.3 83 -7.2 19
08:45 1014 29.94 843 24.89 -4.8 23.4 83 -7.3 18.9
08:50 1014 29.94 843 24.89 -4.7 23.5 82 -7.3 18.8
08:55 1014 29.94 843 24.89 -4.6 23.6 83 -7.1 19.1
09:00 1014 29.94 843 24.89 -4.6 23.7 84 -7 19.5
09:05 1014 29.94 844 24.92 -4.7 23.5 85 -6.8 19.7
09:10 1014 29.94 844 24.92 -4.7 23.6 86 -6.7 19.9
09:15 1014 29.94 844 24.92 -4.7 23.5 87 -6.6 20.1
09:20 1015 29.97 844 24.92 -4.7 23.6 87 -6.5 20.2
09:25 1015 29.97 844 24.92 -4.6 23.7 87 -6.5 20.3
09:30 1015 29.97 844 24.92 -4.6 23.8 87 -6.5 20.4
09:35 1015 29.97 844 24.92 -4.5 23.9 87 -6.4 20.5
09:40 1015 29.97 844 24.92 -4.4 24 87 -6.3 20.7
09:45 1015 29.97 844 24.92 -4.3 24.3 86 -6.2 20.8
09:50 1015 29.97 844 24.92 -4.1 24.6 85 -6.2 20.8
09:55 1015 29.97 844 24.92 -4.1 24.6 86 -6.2 20.9
10:00 1015 29.97 844 24.92 -4.2 24.5 86 -6.2 20.8
10:05 1015 29.97 844 24.92 -4.5 24 87 -6.4 20.5
10:10 1015 29.97 845 24.95 -4.5 23.8 86 -6.6 20.1
10:15 1016 30 845 24.95 -4.5 23.9 84 -6.8 19.8
10:20 1016 30 845 24.95 -4.4 24.1 83 -6.9 19.7
10:25 1016 30 845 24.95 -4.4 24.1 82 -7 19.4
10:30 1016 30 845 24.95 -4.3 24.3 81 -7.1 19.2
10:35 1016 30 845 24.95 -4.1 24.7 80 -7.1 19.3
10:40 1016 30 845 24.95 -4 24.9 78 -7.2 19
10:45 1016 30 845 24.95 -3.8 25.2 78 -7.1 19.2
10:50 1016 30 845 24.95 -3.6 25.5 77 -7.1 19.2
10:55 1016 30 845 24.95 -3.2 26.2 75 -7.1 19.1
11:00 1016 30 845 24.95 -2.8 26.9 70 -7.6 18.3
11:05 1016 30 845 24.95 -2.6 27.4 69 -7.4 18.6
11:10 1016 30 845 24.95 -2.5 27.5 68 -7.5 18.5
11:15 1016 30 845 24.95 -2.4 27.6 68 -7.6 18.3
11:20 1016 30 845 24.95 -2.4 27.8 67 -7.6 18.2
11:25 1016 30 846 24.98 -2.3 27.8 68 -7.6 18.4
11:30 1016 30 846 24.98 -2.4 27.6 67 -7.8 17.9
11:35 1016 30 846 24.98 -2.4 27.7 66 -7.9 17.9
11:40 1017 30.03 846 24.98 -2.5 27.6 67 -7.9 17.9
11:45 1017 30.03 846 24.98 -2.6 27.4 66 -8.1 17.3
11:50 1016 30 846 24.98 -2.5 27.6 65 -8.1 17.4
11:55 1016 30 846 24.98 -2.3 27.9 61 -8.9 16.1
12:00 1016 30 846 24.98 -2.1 28.2 60 -8.8 16.1
12:05 1016 30 846 24.98 -2 28.4 61 -8.6 16.5
12:10 1016 30 846 24.98 -1.9 28.6 61 -8.5 16.8
12:15 1016 30 846 24.98 -1.9 28.6 59 -8.8 16.1
12:20 1016 30 846 24.98 -1.9 28.6 58 -9 15.8
12:25 1016 30 846 24.98 -1.8 28.8 58 -9.1 15.7
12:30 1016 30 846 24.98 -1.6 29.1 55 -9.4 15.1
12:35 1016 30 846 24.98 -1.4 29.4 55 -9.4 15.2
12:40 1016 30 846 24.98 -1.4 29.4 54 -9.6 14.6
12:45 1016 30 846 24.98 -1.4 29.4 54 -9.6 14.7
12:50 1016 30 845 24.95 -1.4 29.5 55 -9.4 15.1
12:55 1016 30 845 24.95 -1.2 29.8 54 -9.4 15
13:00 1016 30 845 24.95 -1.1 30.1 52 -9.8 14.3
13:05 1016 30 845 24.95 -1 30.1 53 -9.4 15.1
13:10 1016 30 845 24.95 -1 30.3 53 -9.3 15.3
13:15 1016 30 845 24.95 -0.7 30.7 51 -9.7 14.5
13:20 1016 30 845 24.95 -0.5 31.1 52 -9.1 15.6
13:25 1016 30 845 24.95 -0.9 30.4 53 -9.4 15.1
13:30 1016 30 845 24.95 -1.1 30.1 53 -9.4 15
13:35 1016 30 845 24.95 -1.1 30.1 53 -9.4 15.2
13:40 1016 30 845 24.95 -1.1 30.1 53 -9.6 14.8
13:45 1016 30 845 24.95 -0.9 30.3 53 -9.3 15.2
13:50 1016 30 845 24.95 -0.8 30.5 52 -9.4 15
13:55 1016 30 845 24.95 -0.8 30.6 52 -9.4 15.1
14:00 1016 30 845 24.95 -0.8 30.6 53 -9.1 15.6
14:05 1016 30 845 24.95 -0.8 30.5 51 -9.6 14.6
14:10 1016 30 845 24.95 -0.9 30.4 51 -9.8 14.3
14:15 1016 30 845 24.95 -0.9 30.4 51 -9.8 14.3
14:20 1016 30 845 24.95 -0.8 30.6 52 -9.4 15.1
14:25 1016 30 845 24.95 -0.8 30.7 51 -9.6 14.7
14:30 1016 30 845 24.95 -0.7 30.7 51 -9.5 14.8
14:35 1016 30 845 24.95 -0.7 30.8 52 -9.5 14.9
14:40 1016 30 845 24.95 -0.8 30.6 52 -9.4 15.1
14:45 1016 30 845 24.95 -0.7 30.8 53 -9.1 15.5
14:50 1016 30 845 24.95 -0.7 30.7 53 -9.2 15.5
14:55 1016 30 845 24.95 -0.7 30.7 54 -9 15.9
15:00 1016 30 845 24.95 -0.7 30.7 53 -9.2 15.4
15:05 1016 30 845 24.95 -0.7 30.7 53 -9.3 15.3
15:10 1016 30 845 24.95 -0.9 30.4 53 -9.2 15.4
15:15 1016 30 845 24.95 -0.9 30.4 54 -9.1 15.5
15:20 1016 30 845 24.95 -0.9 30.3 54 -9 15.8
15:25 1016 30 845 24.95 -1 30.3 54 -9.2 15.4
15:30 1016 30 845 24.95 -0.9 30.3 54 -9.2 15.5
15:35 1016 30 845 24.95 -1 30.2 54 -9.2 15.4
15:40 1016 30 845 24.95 -1 30.1 54 -9.1 15.5
15:45 1016 30 845 24.95 -1.2 29.9 54 -9.3 15.3
15:50 1016 30 845 24.95 -1.3 29.7 54 -9.5 15
15:55 1016 30 845 24.95 -1.3 29.7 54 -9.5 15
16:00 1016 30 845 24.95 -1.4 29.6 55 -9.2 15.4
16:05 1016 30 845 24.95 -1.4 29.5 56 -9.1 15.6
16:10 1016 30 845 24.95 -1.4 29.5 56 -9 15.9
16:15 1015 29.97 845 24.95 -1.3 29.6 55 -9.2 15.4
16:20 1015 29.97 845 24.95 -1.3 29.6 55 -9.3 15.3
16:25 1015 29.97 845 24.95 -1.3 29.7 55 -9.1 15.6
16:30 1016 30 845 24.95 -1.3 29.7 56 -9.1 15.7
16:35 1016 30 845 24.95 -1.2 29.8 55 -9 15.7
16:40 1016 30 845 24.95 -1.3 29.7 56 -9 15.8
16:45 1016 30 845 24.95 -1.3 29.7 55 -9.2 15.4
16:50 1016 30 845 24.95 -1.2 29.8 55 -9.2 15.5
16:55 1016 30 845 24.95 -1.2 29.9 54 -9.3 15.3
17:00 1016 30 845 24.95 -1.3 29.6 55 -9.2 15.5
17:05 1016 30 845 24.95 -1.3 29.6 53 -9.8 14.4
17:10 1016 30 845 24.95 -1.3 29.6 54 -9.5 14.9
17:15 1016 30 845 24.95 -1.4 29.5 54 -9.6 14.7
17:20 1016 30 845 24.95 -1.5 29.2 54 -9.6 14.7
17:25 1016 30 845 24.95 -1.6 29.2 54 -9.6 14.7
17:30 1016 30 845 24.95 -1.6 29.1 54 -9.7 14.5
17:35 1016 30 845 24.95 -1.7 29 55 -9.4 15
17:40 1016 30 845 24.95 -1.7 28.9 56 -9.4 15.1
17:45 1016 30 845 24.95 -1.7 28.9 56 -9.3 15.3
17:50 1016 30 845 24.95 -1.7 29 54 -9.8 14.4
17:55 1016 30 845 24.95 -1.5 29.3 54 -9.8 14.4
18:00 1016 30 845 24.95 -1.6 29.2 55 -9.5 15
18:05 1016 30 845 24.95 -1.7 29 55 -9.5 14.9
18:10 1016 30 845 24.95 -1.7 29 56 -9.3 15.3
18:15 1016 30 845 24.95 -1.7 29 55 -9.5 14.9
18:20 1016 30 845 24.95 -1.6 29.1 55 -9.6 14.8
18:25 1016 30 845 24.95 -1.6 29.1 55 -9.5 14.8
18:30 1016 30 845 24.95 -1.6 29.2 53 -9.9 14.2
18:35 1016 30 845 24.95 -1.5 29.3 54 -9.7 14.6
18:40 1016 30 845 24.95 -1.4 29.4 53 -9.8 14.4
18:45 1016 30 845 24.95 -1.5 29.3 54 -9.7 14.6
18:50 1016 30 845 24.95 -1.5 29.3 55 -9.5 14.9
18:55 1016 30 845 24.95 -1.6 29.1 60 -8.3 17.1
19:00 1016 30 845 24.95 -1.8 28.7 60 -8.7 16.4
19:05 1016 30 845 24.95 -1.9 28.6 59 -8.8 16.2
19:10 1016 30 845 24.95 -2 28.4 59 -9.1 15.7
19:15 1016 30 845 24.95 -2 28.5 57 -9.4 15.1
19:20 1016 30 845 24.95 -1.9 28.6 56 -9.6 14.7
19:25 1016 30 845 24.95 -1.9 28.6 56 -9.5 15
19:30 1016 30 845 24.95 -1.9 28.6 56 -9.6 14.8
19:35 1016 30 845 24.95 -1.8 28.8 56 -9.5 14.9
19:40 1016 30 845 24.95 -1.9 28.6 57 -9.2 15.4
19:45 1016 30 845 24.95 -1.9 28.5 60 -8.8 16.2
19:50 1016 30 845 24.95 -2 28.5 62 -8.2 17.2
19:55 1016 30 845 24.95 -2 28.4 61 -8.5 16.7
20:00 1016 30 845 24.95 -2 28.4 59 -8.9 16
20:05 1016 30 845 24.95 -2 28.4 61 -8.6 16.5
20:10 1016 30 845 24.95 -2 28.3 61 -8.6 16.5
20:15 1016 30 845 24.95 -2.1 28.2 61 -8.6 16.6
20:20 1016 30 845 24.95 -2.1 28.2 61 -8.5 16.6
20:25 1016 30 845 24.95 -2 28.4 62 -8.4 16.9
20:30 1016 30 845 24.95 -1.9 28.5 62 -8.3 17
20:35 1016 30 845 24.95 -1.9 28.5 62 -8.2 17.3
20:40 1016 30 845 24.95 -1.9 28.5 63 -8.1 17.5
20:45 1016 30 845 24.95 -2 28.3 64 -8 17.6
20:50 1016 30 845 24.95 -2.1 28.3 64 -8 17.6
20:55 1016 30 845 24.95 -2.2 28.1 65 -8 17.7
21:00 1016 30 845 24.95 -2.2 28 65 -7.9 17.9
21:05 1016 30 845 24.95 -2.2 28 65 -7.8 17.9
21:10 1016 30 845 24.95 -2.1 28.2 65 -7.8 18
21:15 1016 30 845 24.95 -2.1 28.3 66 -7.7 18.2
21:20 1016 30 845 24.95 -2 28.3 66 -7.6 18.3
21:25 1016 30 845 24.95 -2 28.5 65 -7.6 18.3
21:30 1016 30 845 24.95 -1.9 28.6 64 -7.7 18.1
21:35 1016 30 845 24.95 -1.8 28.7 64 -7.7 18.2
21:40 1016 30 845 24.95 -1.8 28.7 66 -7.3 18.8
21:45 1016 30 845 24.95 -1.9 28.6 66 -7.5 18.5
21:50 1016 30 845 24.95 -1.8 28.7 65 -7.5 18.5
21:55 1016 30 845 24.95 -1.8 28.7 65 -7.7 18.2
22:00 1016 30 845 24.95 -1.9 28.6 64 -7.9 17.8
22:05 1016 30 845 24.95 -2 28.5 62 -8.3 17
22:10 1016 30 845 24.95 -1.9 28.6 60 -8.6 16.6
22:15 1016 30 845 24.95 -2 28.4 61 -8.5 16.6
22:20 1016 30 845 24.95 -2.1 28.2 61 -8.7 16.3
22:25 1016 30 845 24.95 -2.1 28.3 59 -9.1 15.7
22:30 1016 30 845 24.95 -2.1 28.2 59 -9 15.8
22:35 1016 30 845 24.95 -2.1 28.2 58 -9.3 15.3
22:40 1016 30 845 24.95 -2.1 28.2 58 -9.3 15.2
22:45 1016 30 845 24.95 -2.2 28.1 58 -9.4 15.1
22:50 1016 30 845 24.95 -2.1 28.1 59 -9.2 15.5
22:55 1016 30 845 24.95 -2.2 28.1 58 -9.4 15.2
23:00 1016 30 845 24.95 -2.1 28.2 59 -9.1 15.6
23:05 1016 30 845 24.95 -2.1 28.2 59 -9.1 15.6
23:10 1016 30 845 24.95 -2.1 28.3 60 -8.8 16.2
23:15 1016 30 845 24.95 -2.1 28.3 60 -8.8 16.1
23:20 1016 30 845 24.95 -2.1 28.2 70 -6.9 19.6
23:25 1016 30 845 24.95 -2.3 27.9 72 -6.6 20.1
23:30 1016 30 845 24.95 -2.2 28 71 -6.7 19.9
23:35 1016 30 845 24.95 -2.1 28.2 69 -7.1 19.2
23:40 1016 30 845 24.95 -2 28.5 64 -7.8 18
23:45 1016 30 845 24.95 -1.9 28.6 63 -8 17.6
23:50 1016 30 845 24.95 -2 28.5 63 -8 17.6
23:55 1016 30 845 24.95 -2 28.3 64 -7.9 17.7
24:00 1015 29.97 845 24.95 -2 28.4 64 -7.9 17.9